createdAt,value
2019-05-01T08:41:39.755Z,3.98
2019-05-01T08:44:09.076Z,4.12
2019-05-01T08:46:46.948Z,3.47
2019-05-01T08:49:22.544Z,3.70
2019-05-01T08:51:51.124Z,4.15
2019-05-01T08:54:19.563Z,4.03
2019-05-01T08:56:48.171Z,4.05
2019-05-01T08:59:19.425Z,3.93
2019-05-01T09:01:50.595Z,4.42
2019-05-01T09:04:18.855Z,3.70
2019-05-01T09:06:47.472Z,3.87
2019-05-01T09:09:16.042Z,3.37
2019-05-01T09:11:44.560Z,3.72
2019-05-01T09:14:13.374Z,3.70
2019-05-01T09:16:42.982Z,4.00
2019-05-01T09:19:11.695Z,3.55
2019-05-01T09:21:40.375Z,3.70
2019-05-01T09:24:08.880Z,3.92
2019-05-01T09:26:45.246Z,3.55
2019-05-01T09:29:19.979Z,3.95
2019-05-01T09:31:49.425Z,3.60
2019-05-01T09:34:19.262Z,3.52
2019-05-01T09:36:48.115Z,3.80
2019-05-01T09:39:17.603Z,3.70
2019-05-01T09:41:47.332Z,3.50
2019-05-01T09:44:16.806Z,3.85
2019-05-01T09:46:45.506Z,3.83
2019-05-01T09:49:17.761Z,4.30
2019-05-01T09:52:02.116Z,3.37
2019-05-01T09:57:10.774Z,3.60
2019-05-01T09:59:39.253Z,3.50
2019-05-01T10:02:09.144Z,3.60
2019-05-01T10:04:37.812Z,3.02
2019-05-01T10:07:07.993Z,3.40
2019-05-01T10:09:36.503Z,3.40
2019-05-01T10:12:05.207Z,4.28
2019-05-01T10:14:36.298Z,4.10
2019-05-01T10:17:04.209Z,4.00
2019-05-01T10:19:32.800Z,4.03
2019-05-01T10:22:02.418Z,4.00
2019-05-01T10:24:37.282Z,4.05
2019-05-01T10:27:03.871Z,5.20
2019-05-01T10:29:34.043Z,5.08
2019-05-01T10:32:16.789Z,4.50
2019-05-01T10:34:44.684Z,4.50
2019-05-01T10:37:13.283Z,4.90
2019-05-01T10:39:41.767Z,5.05
